sensor_id;sensor_type;location;lat;lon;timestamp;temperature;humidity
67586;SHT31;55785;47.946;20.540;2023-11-21T00:02:14;7.85;83.81
67586;SHT31;55785;47.946;20.540;2023-11-21T00:04:39;7.59;84.53
67586;SHT31;55785;47.946;20.540;2023-11-21T00:07:04;7.43;84.93
67586;SHT31;55785;47.946;20.540;2023-11-21T00:09:30;7.03;85.02
67586;SHT31;55785;47.946;20.540;2023-11-21T00:11:55;6.83;85.66
67586;SHT31;55785;47.946;20.540;2023-11-21T00:14:20;6.38;87.06
67586;SHT31;55785;47.946;20.540;2023-11-21T00:16:46;6.21;87.00
67586;SHT31;55785;47.946;20.540;2023-11-21T00:19:11;6.27;88.12
67586;SHT31;55785;47.946;20.540;2023-11-21T00:21:37;6.18;88.17
67586;SHT31;55785;47.946;20.540;2023-11-21T00:24:02;6.28;88.86
67586;SHT31;55785;47.946;20.540;2023-11-21T00:26:28;6.40;89.05
67586;SHT31;55785;47.946;20.540;2023-11-21T00:28:55;6.46;89.11
67586;SHT31;55785;47.946;20.540;2023-11-21T00:31:21;6.55;89.18
67586;SHT31;55785;47.946;20.540;2023-11-21T00:33:46;6.72;89.21
67586;SHT31;55785;47.946;20.540;2023-11-21T00:36:11;6.92;88.79
67586;SHT31;55785;47.946;20.540;2023-11-21T00:38:37;7.03;88.24
67586;SHT31;55785;47.946;20.540;2023-11-21T00:41:02;7.26;87.57
67586;SHT31;55785;47.946;20.540;2023-11-21T00:43:28;7.31;87.32
67586;SHT31;55785;47.946;20.540;2023-11-21T00:45:53;7.41;86.93
67586;SHT31;55785;47.946;20.540;2023-11-21T00:48:19;7.41;86.55
67586;SHT31;55785;47.946;20.540;2023-11-21T00:50:44;7.43;86.49
67586;SHT31;55785;47.946;20.540;2023-11-21T00:53:10;7.48;86.18
67586;SHT31;55785;47.946;20.540;2023-11-21T00:55:35;7.55;86.06
67586;SHT31;55785;47.946;20.540;2023-11-21T00:58:00;7.59;85.80
67586;SHT31;55785;47.946;20.540;2023-11-21T01:00:28;7.61;85.67
67586;SHT31;55785;47.946;20.540;2023-11-21T01:02:54;7.68;85.58
67586;SHT31;55785;47.946;20.540;2023-11-21T01:05:19;7.71;85.49
67586;SHT31;55785;47.946;20.540;2023-11-21T01:07:44;7.72;85.20
67586;SHT31;55785;47.946;20.540;2023-11-21T01:10:10;7.75;85.15
67586;SHT31;55785;47.946;20.540;2023-11-21T01:12:36;7.77;85.07
67586;SHT31;55785;47.946;20.540;2023-11-21T01:15:06;7.62;84.96
67586;SHT31;55785;47.946;20.540;2023-11-21T01:17:31;7.35;85.27
67586;SHT31;55785;47.946;20.540;2023-11-21T01:19:56;7.26;85.65
67586;SHT31;55785;47.946;20.540;2023-11-21T01:22:22;7.20;86.33
67586;SHT31;55785;47.946;20.540;2023-11-21T01:24:47;7.13;86.21
67586;SHT31;55785;47.946;20.540;2023-11-21T01:27:13;6.93;86.61
67586;SHT31;55785;47.946;20.540;2023-11-21T01:29:38;6.83;87.38
67586;SHT31;55785;47.946;20.540;2023-11-21T01:32:04;6.73;87.56
67586;SHT31;55785;47.946;20.540;2023-11-21T01:34:29;6.71;87.45
67586;SHT31;55785;47.946;20.540;2023-11-21T01:36:54;6.71;87.19
67586;SHT31;55785;47.946;20.540;2023-11-21T01:39:20;6.65;87.72
67586;SHT31;55785;47.946;20.540;2023-11-21T01:41:45;6.62;87.58
67586;SHT31;55785;47.946;20.540;2023-11-21T01:44:10;6.61;87.66
67586;SHT31;55785;47.946;20.540;2023-11-21T01:46:36;6.67;87.93
67586;SHT31;55785;47.946;20.540;2023-11-21T01:49:01;6.64;87.72
67586;SHT31;55785;47.946;20.540;2023-11-21T01:51:27;6.59;88.11
67586;SHT31;55785;47.946;20.540;2023-11-21T01:53:52;6.64;87.88
67586;SHT31;55785;47.946;20.540;2023-11-21T01:56:18;6.68;87.87
67586;SHT31;55785;47.946;20.540;2023-11-21T01:58:43;6.75;87.67
67586;SHT31;55785;47.946;20.540;2023-11-21T02:01:09;6.82;87.58
67586;SHT31;55785;47.946;20.540;2023-11-21T02:03:34;6.83;87.44
67586;SHT31;55785;47.946;20.540;2023-11-21T02:06:01;6.85;87.56
67586;SHT31;55785;47.946;20.540;2023-11-21T02:08:26;6.93;87.38
67586;SHT31;55785;47.946;20.540;2023-11-21T02:10:52;7.03;87.29
67586;SHT31;55785;47.946;20.540;2023-11-21T02:13:17;7.06;87.08
67586;SHT31;55785;47.946;20.540;2023-11-21T02:15:43;7.04;86.80
67586;SHT31;55785;47.946;20.540;2023-11-21T02:18:08;7.07;86.79
67586;SHT31;55785;47.946;20.540;2023-11-21T02:20:34;7.13;86.71
67586;SHT31;55785;47.946;20.540;2023-11-21T02:22:59;7.11;86.64
67586;SHT31;55785;47.946;20.540;2023-11-21T02:25:29;7.06;86.60
67586;SHT31;55785;47.946;20.540;2023-11-21T02:27:55;7.07;86.70
67586;SHT31;55785;47.946;20.540;2023-11-21T02:30:21;7.17;86.50
67586;SHT31;55785;47.946;20.540;2023-11-21T02:32:48;7.23;86.05
67586;SHT31;55785;47.946;20.540;2023-11-21T02:35:13;7.03;85.68
67586;SHT31;55785;47.946;20.540;2023-11-21T02:37:39;6.95;86.05
67586;SHT31;55785;47.946;20.540;2023-11-21T02:40:05;6.76;86.58
67586;SHT31;55785;47.946;20.540;2023-11-21T02:42:30;6.75;86.69
67586;SHT31;55785;47.946;20.540;2023-11-21T02:44:55;6.73;86.88
67586;SHT31;55785;47.946;20.540;2023-11-21T02:47:21;6.55;86.33
67586;SHT31;55785;47.946;20.540;2023-11-21T02:49:46;6.42;86.31
67586;SHT31;55785;47.946;20.540;2023-11-21T02:52:12;6.21;87.36
67586;SHT31;55785;47.946;20.540;2023-11-21T02:54:37;6.28;88.90
67586;SHT31;55785;47.946;20.540;2023-11-21T02:57:02;6.44;88.55
67586;SHT31;55785;47.946;20.540;2023-11-21T02:59:28;6.69;88.02
67586;SHT31;55785;47.946;20.540;2023-11-21T03:01:53;6.86;87.52
67586;SHT31;55785;47.946;20.540;2023-11-21T03:04:19;6.89;86.82
67586;SHT31;55785;47.946;20.540;2023-11-21T03:06:44;6.85;86.68
67586;SHT31;55785;47.946;20.540;2023-11-21T03:09:10;6.75;86.86
67586;SHT31;55785;47.946;20.540;2023-11-21T03:11:35;6.71;86.96
67586;SHT31;55785;47.946;20.540;2023-11-21T03:14:01;6.72;86.94
67586;SHT31;55785;47.946;20.540;2023-11-21T03:16:26;6.68;86.68
67586;SHT31;55785;47.946;20.540;2023-11-21T03:18:52;6.59;86.75
67586;SHT31;55785;47.946;20.540;2023-11-21T03:21:17;6.45;87.28
67586;SHT31;55785;47.946;20.540;2023-11-21T03:23:42;6.41;87.48
67586;SHT31;55785;47.946;20.540;2023-11-21T03:26:12;6.35;87.33
67586;SHT31;55785;47.946;20.540;2023-11-21T03:28:37;6.32;87.52
67586;SHT31;55785;47.946;20.540;2023-11-21T03:31:02;6.25;87.66
67586;SHT31;55785;47.946;20.540;2023-11-21T03:33:28;6.04;86.68
67586;SHT31;55785;47.946;20.540;2023-11-21T03:35:53;5.80;88.42
67586;SHT31;55785;47.946;20.540;2023-11-21T03:38:18;5.77;88.97
67586;SHT31;55785;47.946;20.540;2023-11-21T03:40:44;5.83;89.19
67586;SHT31;55785;47.946;20.540;2023-11-21T03:43:09;5.87;88.82
67586;SHT31;55785;47.946;20.540;2023-11-21T03:45:34;5.99;89.25
67586;SHT31;55785;47.946;20.540;2023-11-21T03:48:00;6.17;89.17
67586;SHT31;55785;47.946;20.540;2023-11-21T03:50:25;6.34;88.70
67586;SHT31;55785;47.946;20.540;2023-11-21T03:52:50;6.40;88.36
67586;SHT31;55785;47.946;20.540;2023-11-21T03:55:16;6.51;87.99
67586;SHT31;55785;47.946;20.540;2023-11-21T03:57:41;6.56;87.72
67586;SHT31;55785;47.946;20.540;2023-11-21T04:00:07;6.69;87.33
67586;SHT31;55785;47.946;20.540;2023-11-21T04:02:33;6.79;87.04
67586;SHT31;55785;47.946;20.540;2023-11-21T04:04:58;6.83;86.68
67586;SHT31;55785;47.946;20.540;2023-11-21T04:07:23;6.86;86.64
67586;SHT31;55785;47.946;20.540;2023-11-21T04:09:49;6.88;86.51
67586;SHT31;55785;47.946;20.540;2023-11-21T04:12:14;6.89;86.42
67586;SHT31;55785;47.946;20.540;2023-11-21T04:14:39;6.90;86.33
67586;SHT31;55785;47.946;20.540;2023-11-21T04:17:05;6.88;86.17
67586;SHT31;55785;47.946;20.540;2023-11-21T04:19:30;6.83;86.21
67586;SHT31;55785;47.946;20.540;2023-11-21T04:21:55;6.80;86.31
67586;SHT31;55785;47.946;20.540;2023-11-21T04:24:21;6.68;86.55
67586;SHT31;55785;47.946;20.540;2023-11-21T04:26:46;6.65;86.58
67586;SHT31;55785;47.946;20.540;2023-11-21T04:29:12;6.64;86.70
67586;SHT31;55785;47.946;20.540;2023-11-21T04:31:37;6.56;86.63
67586;SHT31;55785;47.946;20.540;2023-11-21T04:34:03;6.48;86.79
67586;SHT31;55785;47.946;20.540;2023-11-21T04:36:28;6.42;86.90
67586;SHT31;55785;47.946;20.540;2023-11-21T04:38:54;6.44;87.18
67586;SHT31;55785;47.946;20.540;2023-11-21T04:41:19;6.51;87.24
67586;SHT31;55785;47.946;20.540;2023-11-21T04:43:44;6.58;87.00
67586;SHT31;55785;47.946;20.540;2023-11-21T04:46:10;6.64;86.80
67586;SHT31;55785;47.946;20.540;2023-11-21T04:48:35;6.61;86.84
67586;SHT31;55785;47.946;20.540;2023-11-21T04:51:00;6.68;86.76
67586;SHT31;55785;47.946;20.540;2023-11-21T04:53:26;6.71;86.49
67586;SHT31;55785;47.946;20.540;2023-11-21T04:55:51;6.71;86.47
67586;SHT31;55785;47.946;20.540;2023-11-21T04:58:17;6.75;86.40
67586;SHT31;55785;47.946;20.540;2023-11-21T05:00:42;6.75;86.27
67586;SHT31;55785;47.946;20.540;2023-11-21T05:03:09;6.76;86.28
67586;SHT31;55785;47.946;20.540;2023-11-21T05:05:34;6.80;86.09
67586;SHT31;55785;47.946;20.540;2023-11-21T05:08:00;6.86;85.98
67586;SHT31;55785;47.946;20.540;2023-11-21T05:10:25;6.89;85.80
67586;SHT31;55785;47.946;20.540;2023-11-21T05:12:50;6.92;85.83
67586;SHT31;55785;47.946;20.540;2023-11-21T05:15:16;6.88;85.87
67586;SHT31;55785;47.946;20.540;2023-11-21T05:17:42;6.76;85.87
67586;SHT31;55785;47.946;20.540;2023-11-21T05:20:08;6.64;86.37
67586;SHT31;55785;47.946;20.540;2023-11-21T05:22:34;6.46;87.07
67586;SHT31;55785;47.946;20.540;2023-11-21T05:25:00;6.40;87.28
67586;SHT31;55785;47.946;20.540;2023-11-21T05:27:25;6.45;87.27
67586;SHT31;55785;47.946;20.540;2023-11-21T05:29:51;6.46;87.38
67586;SHT31;55785;47.946;20.540;2023-11-21T05:32:16;6.55;87.28
67586;SHT31;55785;47.946;20.540;2023-11-21T05:34:41;6.61;87.23
67586;SHT31;55785;47.946;20.540;2023-11-21T05:37:07;6.78;86.83
67586;SHT31;55785;47.946;20.540;2023-11-21T05:39:32;7.06;85.47
67586;SHT31;55785;47.946;20.540;2023-11-21T05:41:57;7.34;84.26
67586;SHT31;55785;47.946;20.540;2023-11-21T05:44:23;7.52;83.68
67586;SHT31;55785;47.946;20.540;2023-11-21T05:46:48;7.59;83.48
67586;SHT31;55785;47.946;20.540;2023-11-21T05:49:13;7.59;83.18
67586;SHT31;55785;47.946;20.540;2023-11-21T05:51:39;7.58;83.10
67586;SHT31;55785;47.946;20.540;2023-11-21T05:54:04;7.57;83.08
67586;SHT31;55785;47.946;20.540;2023-11-21T05:56:30;7.65;82.96
67586;SHT31;55785;47.946;20.540;2023-11-21T05:58:55;7.81;82.12
67586;SHT31;55785;47.946;20.540;2023-11-21T06:01:20;7.79;82.38
67586;SHT31;55785;47.946;20.540;2023-11-21T06:03:46;7.67;82.56
67586;SHT31;55785;47.946;20.540;2023-11-21T06:06:11;7.52;82.99
67586;SHT31;55785;47.946;20.540;2023-11-21T06:08:36;7.24;83.82
67586;SHT31;55785;47.946;20.540;2023-11-21T06:11:02;7.07;83.48
67586;SHT31;55785;47.946;20.540;2023-11-21T06:13:27;6.83;84.11
67586;SHT31;55785;47.946;20.540;2023-11-21T06:15:53;6.75;85.07
67586;SHT31;55785;47.946;20.540;2023-11-21T06:18:18;6.65;85.33
67586;SHT31;55785;47.946;20.540;2023-11-21T06:20:43;6.52;85.61
67586;SHT31;55785;47.946;20.540;2023-11-21T06:23:09;6.40;86.26
67586;SHT31;55785;47.946;20.540;2023-11-21T06:25:34;6.32;86.63
67586;SHT31;55785;47.946;20.540;2023-11-21T06:28:00;6.28;87.16
67586;SHT31;55785;47.946;20.540;2023-11-21T06:30:25;6.32;87.19
67586;SHT31;55785;47.946;20.540;2023-11-21T06:32:50;6.38;87.08
67586;SHT31;55785;47.946;20.540;2023-11-21T06:35:16;6.37;86.98
67586;SHT31;55785;47.946;20.540;2023-11-21T06:37:41;6.35;86.90
67586;SHT31;55785;47.946;20.540;2023-11-21T06:40:07;6.17;87.16
67586;SHT31;55785;47.946;20.540;2023-11-21T06:42:33;6.18;87.13
67586;SHT31;55785;47.946;20.540;2023-11-21T06:44:58;6.18;87.34
67586;SHT31;55785;47.946;20.540;2023-11-21T06:47:24;6.10;87.41
67586;SHT31;55785;47.946;20.540;2023-11-21T06:49:51;6.09;87.68
67586;SHT31;55785;47.946;20.540;2023-11-21T06:52:16;6.10;87.69
67586;SHT31;55785;47.946;20.540;2023-11-21T06:54:42;6.10;87.46
67586;SHT31;55785;47.946;20.540;2023-11-21T06:57:08;6.03;87.99
67586;SHT31;55785;47.946;20.540;2023-11-21T06:59:33;6.04;88.05
67586;SHT31;55785;47.946;20.540;2023-11-21T07:01:58;5.73;88.11
67586;SHT31;55785;47.946;20.540;2023-11-21T07:04:24;5.58;88.54
67586;SHT31;55785;47.946;20.540;2023-11-21T07:06:49;5.52;88.70
67586;SHT31;55785;47.946;20.540;2023-11-21T07:09:15;5.28;89.02
67586;SHT31;55785;47.946;20.540;2023-11-21T07:11:40;5.17;89.37
67586;SHT31;55785;47.946;20.540;2023-11-21T07:14:05;5.13;89.62
67586;SHT31;55785;47.946;20.540;2023-11-21T07:16:31;5.20;89.63
67586;SHT31;55785;47.946;20.540;2023-11-21T07:18:56;5.25;89.66
67586;SHT31;55785;47.946;20.540;2023-11-21T07:21:21;5.32;89.61
67586;SHT31;55785;47.946;20.540;2023-11-21T07:23:47;5.36;89.50
67586;SHT31;55785;47.946;20.540;2023-11-21T07:26:12;5.42;89.45
67586;SHT31;55785;47.946;20.540;2023-11-21T07:28:37;5.42;89.47
67586;SHT31;55785;47.946;20.540;2023-11-21T07:31:03;5.46;89.36
67586;SHT31;55785;47.946;20.540;2023-11-21T07:33:28;5.51;89.35
67586;SHT31;55785;47.946;20.540;2023-11-21T07:35:54;5.42;89.45
67586;SHT31;55785;47.946;20.540;2023-11-21T07:38:19;5.45;89.76
67586;SHT31;55785;47.946;20.540;2023-11-21T07:40:44;5.45;89.63
67586;SHT31;55785;47.946;20.540;2023-11-21T07:43:10;5.39;89.52
67586;SHT31;55785;47.946;20.540;2023-11-21T07:45:35;5.36;90.03
67586;SHT31;55785;47.946;20.540;2023-11-21T07:48:01;5.45;89.86
67586;SHT31;55785;47.946;20.540;2023-11-21T07:50:26;5.56;89.67
67586;SHT31;55785;47.946;20.540;2023-11-21T07:52:51;5.60;89.52
67586;SHT31;55785;47.946;20.540;2023-11-21T07:55:17;5.66;89.51
67586;SHT31;55785;47.946;20.540;2023-11-21T07:57:43;5.69;89.46
67586;SHT31;55785;47.946;20.540;2023-11-21T08:00:08;5.60;89.67
67586;SHT31;55785;47.946;20.540;2023-11-21T08:02:34;5.59;89.93
67586;SHT31;55785;47.946;20.540;2023-11-21T08:04:59;5.65;90.11
67586;SHT31;55785;47.946;20.540;2023-11-21T08:07:25;5.69;90.04
67586;SHT31;55785;47.946;20.540;2023-11-21T08:09:50;5.80;90.01
67586;SHT31;55785;47.946;20.540;2023-11-21T08:12:16;5.89;90.08
67586;SHT31;55785;47.946;20.540;2023-11-21T08:14:41;6.00;89.81
67586;SHT31;55785;47.946;20.540;2023-11-21T08:17:06;6.04;89.53
67586;SHT31;55785;47.946;20.540;2023-11-21T08:19:32;6.14;89.30
67586;SHT31;55785;47.946;20.540;2023-11-21T08:21:57;6.21;89.05
67586;SHT31;55785;47.946;20.540;2023-11-21T08:24:22;6.17;89.24
67586;SHT31;55785;47.946;20.540;2023-11-21T08:26:48;6.17;89.72
67586;SHT31;55785;47.946;20.540;2023-11-21T08:29:13;6.21;89.84
67586;SHT31;55785;47.946;20.540;2023-11-21T08:31:38;6.22;89.29
67586;SHT31;55785;47.946;20.540;2023-11-21T08:34:04;6.30;89.40
67586;SHT31;55785;47.946;20.540;2023-11-21T08:36:29;6.28;89.35
67586;SHT31;55785;47.946;20.540;2023-11-21T08:38:55;6.27;88.94
67586;SHT31;55785;47.946;20.540;2023-11-21T08:41:20;6.30;88.84
67586;SHT31;55785;47.946;20.540;2023-11-21T08:43:45;6.31;88.71
67586;SHT31;55785;47.946;20.540;2023-11-21T08:46:11;6.32;88.69
67586;SHT31;55785;47.946;20.540;2023-11-21T08:48:36;6.37;88.75
67586;SHT31;55785;47.946;20.540;2023-11-21T08:51:03;6.40;89.08
67586;SHT31;55785;47.946;20.540;2023-11-21T08:53:28;6.51;89.04
67586;SHT31;55785;47.946;20.540;2023-11-21T08:55:54;6.61;88.87
67586;SHT31;55785;47.946;20.540;2023-11-21T08:58:19;6.68;88.63
67586;SHT31;55785;47.946;20.540;2023-11-21T09:00:45;6.71;88.57
67586;SHT31;55785;47.946;20.540;2023-11-21T09:03:10;6.71;88.56
67586;SHT31;55785;47.946;20.540;2023-11-21T09:05:38;6.80;88.98
67586;SHT31;55785;47.946;20.540;2023-11-21T09:08:03;6.88;88.83
67586;SHT31;55785;47.946;20.540;2023-11-21T09:10:29;6.82;88.57
67586;SHT31;55785;47.946;20.540;2023-11-21T09:12:54;6.79;88.54
67586;SHT31;55785;47.946;20.540;2023-11-21T09:15:19;6.85;88.63
67586;SHT31;55785;47.946;20.540;2023-11-21T09:17:45;6.88;88.26
67586;SHT31;55785;47.946;20.540;2023-11-21T09:20:10;6.88;88.17
67586;SHT31;55785;47.946;20.540;2023-11-21T09:22:36;6.92;88.47
67586;SHT31;55785;47.946;20.540;2023-11-21T09:25:01;6.82;88.16
67586;SHT31;55785;47.946;20.540;2023-11-21T09:27:27;6.92;88.20
67586;SHT31;55785;47.946;20.540;2023-11-21T09:29:52;6.99;88.03
67586;SHT31;55785;47.946;20.540;2023-11-21T09:32:17;7.01;87.50
67586;SHT31;55785;47.946;20.540;2023-11-21T09:34:43;7.13;87.60
67586;SHT31;55785;47.946;20.540;2023-11-21T09:37:08;7.19;87.60
67586;SHT31;55785;47.946;20.540;2023-11-21T09:39:34;7.20;87.48
67586;SHT31;55785;47.946;20.540;2023-11-21T09:42:11;7.28;87.08
67586;SHT31;55785;47.946;20.540;2023-11-21T09:44:44;7.30;87.01
67586;SHT31;55785;47.946;20.540;2023-11-21T09:47:13;7.28;87.09
67586;SHT31;55785;47.946;20.540;2023-11-21T09:49:39;7.38;87.20
67586;SHT31;55785;47.946;20.540;2023-11-21T09:52:06;7.43;87.20
67586;SHT31;55785;47.946;20.540;2023-11-21T09:54:34;7.40;86.90
67586;SHT31;55785;47.946;20.540;2023-11-21T09:57:00;7.44;86.78
67586;SHT31;55785;47.946;20.540;2023-11-21T09:59:30;7.47;86.90
67586;SHT31;55785;47.946;20.540;2023-11-21T10:01:56;7.47;87.07
67586;SHT31;55785;47.946;20.540;2023-11-21T10:04:22;7.48;87.17
67586;SHT31;55785;47.946;20.540;2023-11-21T10:06:49;7.44;86.35
67586;SHT31;55785;47.946;20.540;2023-11-21T10:09:15;7.43;87.19
67586;SHT31;55785;47.946;20.540;2023-11-21T10:11:42;7.48;87.77
67586;SHT31;55785;47.946;20.540;2023-11-21T10:14:11;7.50;87.90
67586;SHT31;55785;47.946;20.540;2023-11-21T10:16:38;7.51;88.09
67586;SHT31;55785;47.946;20.540;2023-11-21T10:19:04;7.59;87.52
67586;SHT31;55785;47.946;20.540;2023-11-21T10:21:30;7.65;87.26
67586;SHT31;55785;47.946;20.540;2023-11-21T10:23:55;7.71;87.28
67586;SHT31;55785;47.946;20.540;2023-11-21T10:26:22;7.71;86.94
67586;SHT31;55785;47.946;20.540;2023-11-21T10:28:57;7.77;86.97
67586;SHT31;55785;47.946;20.540;2023-11-21T10:31:23;7.55;86.18
67586;SHT31;55785;47.946;20.540;2023-11-21T10:33:49;7.09;87.19
67586;SHT31;55785;47.946;20.540;2023-11-21T10:36:25;6.89;88.35
67586;SHT31;55785;47.946;20.540;2023-11-21T10:38:50;6.82;88.82
67586;SHT31;55785;47.946;20.540;2023-11-21T10:41:17;6.95;88.80
67586;SHT31;55785;47.946;20.540;2023-11-21T10:43:43;7.01;88.91
67586;SHT31;55785;47.946;20.540;2023-11-21T10:46:08;7.06;88.73
67586;SHT31;55785;47.946;20.540;2023-11-21T10:48:34;7.16;88.96
67586;SHT31;55785;47.946;20.540;2023-11-21T10:50:59;7.26;89.04
67586;SHT31;55785;47.946;20.540;2023-11-21T10:53:28;7.26;88.83
67586;SHT31;55785;47.946;20.540;2023-11-21T10:56:02;7.30;88.52
67586;SHT31;55785;47.946;20.540;2023-11-21T10:58:30;7.37;88.58
67586;SHT31;55785;47.946;20.540;2023-11-21T11:00:56;7.40;87.98
67586;SHT31;55785;47.946;20.540;2023-11-21T11:03:22;7.35;88.60
67586;SHT31;55785;47.946;20.540;2023-11-21T11:05:47;7.30;88.42
67586;SHT31;55785;47.946;20.540;2023-11-21T11:08:14;7.21;88.78
67586;SHT31;55785;47.946;20.540;2023-11-21T11:10:40;7.27;88.79
67586;SHT31;55785;47.946;20.540;2023-11-21T11:13:07;7.32;88.55
67586;SHT31;55785;47.946;20.540;2023-11-21T11:15:32;7.40;88.20
67586;SHT31;55785;47.946;20.540;2023-11-21T11:17:58;7.44;87.89
67586;SHT31;55785;47.946;20.540;2023-11-21T11:20:33;7.50;87.77
67586;SHT31;55785;47.946;20.540;2023-11-21T11:29:22;7.62;87.06
67586;SHT31;55785;47.946;20.540;2023-11-21T11:34:30;7.59;86.96
67586;SHT31;55785;47.946;20.540;2023-11-21T11:37:01;7.51;87.53
67586;SHT31;55785;47.946;20.540;2023-11-21T11:39:28;7.34;87.96
67586;SHT31;55785;47.946;20.540;2023-11-21T11:41:55;7.07;88.82
67586;SHT31;55785;47.946;20.540;2023-11-21T11:47:20;6.85;89.73
67586;SHT31;55785;47.946;20.540;2023-11-21T11:52:41;6.58;90.54
67586;SHT31;55785;47.946;20.540;2023-11-21T11:55:11;6.59;90.26
67586;SHT31;55785;47.946;20.540;2023-11-21T11:57:38;6.56;90.27
67586;SHT31;55785;47.946;20.540;2023-11-21T12:05:20;6.53;90.72
67586;SHT31;55785;47.946;20.540;2023-11-21T12:07:53;6.49;90.60
67586;SHT31;55785;47.946;20.540;2023-11-21T12:10:21;6.48;90.66
67586;SHT31;55785;47.946;20.540;2023-11-21T12:12:54;6.46;90.74
67586;SHT31;55785;47.946;20.540;2023-11-21T12:15:20;6.41;90.79
67586;SHT31;55785;47.946;20.540;2023-11-21T12:17:46;6.40;90.78
67586;SHT31;55785;47.946;20.540;2023-11-21T12:20:18;6.32;90.93
67586;SHT31;55785;47.946;20.540;2023-11-21T12:22:50;6.35;90.89
67586;SHT31;55785;47.946;20.540;2023-11-21T12:25:17;6.31;90.96
67586;SHT31;55785;47.946;20.540;2023-11-21T12:27:43;6.30;90.97
67586;SHT31;55785;47.946;20.540;2023-11-21T12:30:09;6.27;91.17
67586;SHT31;55785;47.946;20.540;2023-11-21T12:32:34;6.32;91.04
67586;SHT31;55785;47.946;20.540;2023-11-21T12:34:59;6.34;90.86
67586;SHT31;55785;47.946;20.540;2023-11-21T12:37:25;6.40;90.80
67586;SHT31;55785;47.946;20.540;2023-11-21T12:39:50;6.41;90.88
67586;SHT31;55785;47.946;20.540;2023-11-21T12:42:16;6.42;90.76
67586;SHT31;55785;47.946;20.540;2023-11-21T12:44:41;6.45;90.66
67586;SHT31;55785;47.946;20.540;2023-11-21T12:47:07;6.42;90.76
67586;SHT31;55785;47.946;20.540;2023-11-21T12:49:32;6.45;90.78
67586;SHT31;55785;47.946;20.540;2023-11-21T12:51:58;6.48;90.80
67586;SHT31;55785;47.946;20.540;2023-11-21T12:54:23;6.48;90.86
67586;SHT31;55785;47.946;20.540;2023-11-21T12:56:49;6.46;90.93
67586;SHT31;55785;47.946;20.540;2023-11-21T12:59:14;6.56;91.04
67586;SHT31;55785;47.946;20.540;2023-11-21T13:01:42;6.62;91.00
67586;SHT31;55785;47.946;20.540;2023-11-21T13:04:07;6.65;90.86
67586;SHT31;55785;47.946;20.540;2023-11-21T13:06:33;6.51;90.59
67586;SHT31;55785;47.946;20.540;2023-11-21T13:08:58;6.48;90.46
67586;SHT31;55785;47.946;20.540;2023-11-21T13:11:24;6.46;90.61
67586;SHT31;55785;47.946;20.540;2023-11-21T13:13:51;6.48;90.55
67586;SHT31;55785;47.946;20.540;2023-11-21T13:16:16;6.52;90.50
67586;SHT31;55785;47.946;20.540;2023-11-21T13:18:42;6.53;90.37
67586;SHT31;55785;47.946;20.540;2023-11-21T13:21:08;6.59;90.28
67586;SHT31;55785;47.946;20.540;2023-11-21T13:23:34;6.65;90.35
67586;SHT31;55785;47.946;20.540;2023-11-21T13:26:00;6.71;90.12
67586;SHT31;55785;47.946;20.540;2023-11-21T13:28:26;6.67;90.04
67586;SHT31;55785;47.946;20.540;2023-11-21T13:30:51;6.65;90.22
67586;SHT31;55785;47.946;20.540;2023-11-21T13:33:16;6.69;90.27
67586;SHT31;55785;47.946;20.540;2023-11-21T13:35:44;6.71;90.08
67586;SHT31;55785;47.946;20.540;2023-11-21T13:38:11;6.71;90.06
67586;SHT31;55785;47.946;20.540;2023-11-21T13:40:37;6.69;89.89
67586;SHT31;55785;47.946;20.540;2023-11-21T13:43:03;6.72;89.86
67586;SHT31;55785;47.946;20.540;2023-11-21T13:45:28;6.72;89.85
67586;SHT31;55785;47.946;20.540;2023-11-21T13:47:54;6.72;89.77
67586;SHT31;55785;47.946;20.540;2023-11-21T13:50:19;6.71;89.83
67586;SHT31;55785;47.946;20.540;2023-11-21T13:52:44;6.71;89.83
67586;SHT31;55785;47.946;20.540;2023-11-21T13:55:10;6.69;89.81
67586;SHT31;55785;47.946;20.540;2023-11-21T13:57:36;6.73;89.62
67586;SHT31;55785;47.946;20.540;2023-11-21T14:00:01;6.75;89.58
67586;SHT31;55785;47.946;20.540;2023-11-21T14:02:26;6.79;89.48
67586;SHT31;55785;47.946;20.540;2023-11-21T14:04:52;6.79;89.48
67586;SHT31;55785;47.946;20.540;2023-11-21T14:07:17;6.75;89.63
67586;SHT31;55785;47.946;20.540;2023-11-21T14:09:42;6.76;89.55
67586;SHT31;55785;47.946;20.540;2023-11-21T14:12:08;6.78;89.34
67586;SHT31;55785;47.946;20.540;2023-11-21T14:14:33;6.75;89.19
67586;SHT31;55785;47.946;20.540;2023-11-21T14:16:58;6.75;89.03
67586;SHT31;55785;47.946;20.540;2023-11-21T14:19:24;6.73;89.01
67586;SHT31;55785;47.946;20.540;2023-11-21T14:21:50;6.62;89.01
67586;SHT31;55785;47.946;20.540;2023-11-21T14:24:15;6.65;89.07
67586;SHT31;55785;47.946;20.540;2023-11-21T14:26:41;6.62;89.07
67586;SHT31;55785;47.946;20.540;2023-11-21T14:29:08;6.56;89.01
67586;SHT31;55785;47.946;20.540;2023-11-21T14:31:33;6.59;89.00
67586;SHT31;55785;47.946;20.540;2023-11-21T14:33:59;6.55;89.00
67586;SHT31;55785;47.946;20.540;2023-11-21T14:36:24;6.52;89.01
67586;SHT31;55785;47.946;20.540;2023-11-21T14:38:49;6.48;88.99
67586;SHT31;55785;47.946;20.540;2023-11-21T14:41:15;6.38;89.03
67586;SHT31;55785;47.946;20.540;2023-11-21T14:43:40;6.28;88.99
67586;SHT31;55785;47.946;20.540;2023-11-21T14:46:08;6.17;89.01
67586;SHT31;55785;47.946;20.540;2023-11-21T14:48:33;6.16;89.24
67586;SHT31;55785;47.946;20.540;2023-11-21T14:50:58;6.14;89.34
67586;SHT31;55785;47.946;20.540;2023-11-21T14:53:24;6.11;89.32
67586;SHT31;55785;47.946;20.540;2023-11-21T14:55:49;6.10;89.33
67586;SHT31;55785;47.946;20.540;2023-11-21T14:58:15;6.04;89.25
67586;SHT31;55785;47.946;20.540;2023-11-21T15:00:40;6.00;89.27
67586;SHT31;55785;47.946;20.540;2023-11-21T15:03:06;5.99;89.36
67586;SHT31;55785;47.946;20.540;2023-11-21T15:05:31;5.96;89.36
67586;SHT31;55785;47.946;20.540;2023-11-21T15:07:57;5.89;89.40
67586;SHT31;55785;47.946;20.540;2023-11-21T15:10:23;5.77;89.55
67586;SHT31;55785;47.946;20.540;2023-11-21T15:12:49;5.73;89.37
67586;SHT31;55785;47.946;20.540;2023-11-21T15:15:14;5.70;89.49
67586;SHT31;55785;47.946;20.540;2023-11-21T15:17:40;5.67;89.79
67586;SHT31;55785;47.946;20.540;2023-11-21T15:20:05;5.62;89.95
67586;SHT31;55785;47.946;20.540;2023-11-21T15:22:31;5.58;90.11
67586;SHT31;55785;47.946;20.540;2023-11-21T15:24:56;5.52;90.17
67586;SHT31;55785;47.946;20.540;2023-11-21T15:27:21;5.42;89.96
67586;SHT31;55785;47.946;20.540;2023-11-21T15:29:47;5.38;89.93
67586;SHT31;55785;47.946;20.540;2023-11-21T15:32:12;5.32;90.02
67586;SHT31;55785;47.946;20.540;2023-11-21T15:34:38;5.31;90.27
67586;SHT31;55785;47.946;20.540;2023-11-21T15:37:07;5.23;90.31
67586;SHT31;55785;47.946;20.540;2023-11-21T15:39:32;5.20;90.30
67586;SHT31;55785;47.946;20.540;2023-11-21T15:41:58;5.20;90.34